sensor_id;sensor_type;location;lat;lon;timestamp;pressure;altitude;pressure_sealevel;temperature;humidity
13709;BME280;54933;51.908;7.730;2023-08-06T00:01:10;99931.78;;;23.82;81.66
13709;BME280;54933;51.908;7.730;2023-08-06T00:03:35;99927.19;;;23.83;81.62
13709;BME280;54933;51.908;7.730;2023-08-06T00:06:01;99929.91;;;23.83;81.58
13709;BME280;54933;51.908;7.730;2023-08-06T00:08:26;99919.88;;;23.83;81.62
13709;BME280;54933;51.908;7.730;2023-08-06T00:10:52;99922.59;;;23.83;81.39
13709;BME280;54933;51.908;7.730;2023-08-06T00:13:17;99911.75;;;23.83;81.53
13709;BME280;54933;51.908;7.730;2023-08-06T00:15:42;99921.50;;;23.84;81.41
13709;BME280;54933;51.908;7.730;2023-08-06T00:18:08;99921.78;;;23.83;81.59
13709;BME280;54933;51.908;7.730;2023-08-06T00:20:33;99918.81;;;23.84;81.41
13709;BME280;54933;51.908;7.730;2023-08-06T00:22:58;99911.75;;;23.83;81.38
13709;BME280;54933;51.908;7.730;2023-08-06T00:25:23;99918.81;;;23.84;81.40
13709;BME280;54933;51.908;7.730;2023-08-06T00:27:49;99919.88;;;23.83;81.31
13709;BME280;54933;51.908;7.730;2023-08-06T00:30:14;99924.22;;;23.84;81.31
13709;BME280;54933;51.908;7.730;2023-08-06T00:32:39;99911.50;;;23.85;81.23
13709;BME280;54933;51.908;7.730;2023-08-06T00:35:05;99913.38;;;23.84;81.41
13709;BME280;54933;51.908;7.730;2023-08-06T00:37:30;99914.19;;;23.85;81.39
13709;BME280;54933;51.908;7.730;2023-08-06T00:39:55;99904.97;;;23.86;81.42
13709;BME280;54933;51.908;7.730;2023-08-06T00:42:21;99909.56;;;23.85;81.35
13709;BME280;54933;51.908;7.730;2023-08-06T00:44:47;99906.84;;;23.85;81.42
13709;BME280;54933;51.908;7.730;2023-08-06T00:47:13;99898.72;;;23.85;81.25
13709;BME280;54933;51.908;7.730;2023-08-06T00:49:38;99892.22;;;23.86;81.20
13709;BME280;54933;51.908;7.730;2023-08-06T00:52:05;99894.94;;;23.86;81.26
13709;BME280;54933;51.908;7.730;2023-08-06T00:54:32;99894.13;;;23.86;81.17
13709;BME280;54933;51.908;7.730;2023-08-06T00:56:59;99885.97;;;23.86;81.38
13709;BME280;54933;51.908;7.730;2023-08-06T00:59:26;99899.53;;;23.86;81.23
13709;BME280;54933;51.908;7.730;2023-08-06T01:01:51;99900.38;;;23.86;81.28
13709;BME280;54933;51.908;7.730;2023-08-06T01:04:17;99898.47;;;23.87;81.32
13709;BME280;54933;51.908;7.730;2023-08-06T01:06:47;99894.94;;;23.86;81.39
13709;BME280;54933;51.908;7.730;2023-08-06T01:09:27;99885.72;;;23.87;81.42
13709;BME280;54933;51.908;7.730;2023-08-06T01:12:12;99884.09;;;23.86;81.42
13709;BME280;54933;51.908;7.730;2023-08-06T01:17:30;99872.72;;;23.89;81.41
13709;BME280;54933;51.908;7.730;2023-08-06T01:19:56;99869.44;;;23.87;81.27
13709;BME280;54933;51.908;7.730;2023-08-06T01:22:21;99864.00;;;23.87;81.27
13709;BME280;54933;51.908;7.730;2023-08-06T01:24:49;99857.53;;;23.88;81.28
13709;BME280;54933;51.908;7.730;2023-08-06T01:27:23;99869.19;;;23.89;81.45
13709;BME280;54933;51.908;7.730;2023-08-06T01:29:58;99869.97;;;23.84;81.32
13709;BME280;54933;51.908;7.730;2023-08-06T01:32:29;99866.31;;;23.74;81.42
13709;BME280;54933;51.908;7.730;2023-08-06T01:34:58;99862.50;;;23.70;81.87
13709;BME280;54933;51.908;7.730;2023-08-06T01:37:24;99863.81;;;23.67;82.12
13709;BME280;54933;51.908;7.730;2023-08-06T01:39:50;99866.78;;;23.66;82.21
13709;BME280;54933;51.908;7.730;2023-08-06T01:42:15;99866.78;;;23.66;82.21
13709;BME280;54933;51.908;7.730;2023-08-06T01:44:40;99866.78;;;23.66;82.46
13709;BME280;54933;51.908;7.730;2023-08-06T01:47:06;99855.66;;;23.67;82.37
13709;BME280;54933;51.908;7.730;2023-08-06T01:49:31;99853.78;;;23.68;82.50
13709;BME280;54933;51.908;7.730;2023-08-06T01:51:56;99856.25;;;23.69;82.43
13709;BME280;54933;51.908;7.730;2023-08-06T01:54:22;99840.78;;;23.70;82.48
13709;BME280;54933;51.908;7.730;2023-08-06T01:56:47;99854.09;;;23.71;82.45
13709;BME280;54933;51.908;7.730;2023-08-06T01:59:13;99843.81;;;23.73;82.41
13709;BME280;54933;51.908;7.730;2023-08-06T02:01:38;99845.44;;;23.74;82.38
13709;BME280;54933;51.908;7.730;2023-08-06T02:04:03;99854.41;;;23.75;82.16
13709;BME280;54933;51.908;7.730;2023-08-06T02:06:29;99844.13;;;23.77;82.23
13709;BME280;54933;51.908;7.730;2023-08-06T02:08:54;99844.91;;;23.77;82.12
13709;BME280;54933;51.908;7.730;2023-08-06T02:11:19;99841.16;;;23.78;82.18
13709;BME280;54933;51.908;7.730;2023-08-06T02:13:45;99841.16;;;23.78;82.21
13709;BME280;54933;51.908;7.730;2023-08-06T02:16:11;99834.91;;;23.78;82.18
13709;BME280;54933;51.908;7.730;2023-08-06T02:18:36;99825.94;;;23.77;82.04
13709;BME280;54933;51.908;7.730;2023-08-06T02:21:01;99821.06;;;23.79;81.93
13709;BME280;54933;51.908;7.730;2023-08-06T02:23:27;99817.53;;;23.79;81.99
13709;BME280;54933;51.908;7.730;2023-08-06T02:26:00;99819.19;;;23.80;81.92
13709;BME280;54933;51.908;7.730;2023-08-06T02:28:25;99819.19;;;23.80;81.91
13709;BME280;54933;51.908;7.730;2023-08-06T02:30:51;99809.97;;;23.81;81.92
13709;BME280;54933;51.908;7.730;2023-08-06T02:33:16;99821.66;;;23.81;81.95
13709;BME280;54933;51.908;7.730;2023-08-06T02:35:42;99813.50;;;23.81;81.63
13709;BME280;54933;51.908;7.730;2023-08-06T02:38:07;99816.22;;;23.81;81.91
13709;BME280;54933;51.908;7.730;2023-08-06T02:40:32;99812.41;;;23.82;81.72
13709;BME280;54933;51.908;7.730;2023-08-06T02:42:57;99812.41;;;23.82;81.69
13709;BME280;54933;51.908;7.730;2023-08-06T02:45:23;99806.19;;;23.82;81.62
13709;BME280;54933;51.908;7.730;2023-08-06T02:47:48;99807.00;;;23.82;81.58
13709;BME280;54933;51.908;7.730;2023-08-06T02:50:13;99813.25;;;23.83;81.57
13709;BME280;54933;51.908;7.730;2023-08-06T02:52:38;99812.41;;;23.82;81.37
13709;BME280;54933;51.908;7.730;2023-08-06T02:55:06;99798.84;;;23.82;81.57
13709;BME280;54933;51.908;7.730;2023-08-06T02:57:31;99802.38;;;23.83;81.33
13709;BME280;54933;51.908;7.730;2023-08-06T02:59:56;99800.75;;;23.82;81.50
13709;BME280;54933;51.908;7.730;2023-08-06T03:02:21;99797.78;;;23.83;81.36
13709;BME280;54933;51.908;7.730;2023-08-06T03:04:47;99798.59;;;23.84;81.22
13709;BME280;54933;51.908;7.730;2023-08-06T03:07:12;99802.13;;;23.84;81.11
13709;BME280;54933;51.908;7.730;2023-08-06T03:09:37;99797.78;;;23.83;81.33
13709;BME280;54933;51.908;7.730;2023-08-06T03:12:03;99796.69;;;23.84;81.53
13709;BME280;54933;51.908;7.730;2023-08-06T03:14:28;99788.56;;;23.84;81.33
13709;BME280;54933;51.908;7.730;2023-08-06T03:16:53;99790.19;;;23.85;81.35
13709;BME280;54933;51.908;7.730;2023-08-06T03:19:19;99793.16;;;23.84;81.39
13709;BME280;54933;51.908;7.730;2023-08-06T03:21:44;99791.00;;;23.86;81.19
13709;BME280;54933;51.908;7.730;2023-08-06T03:24:09;99785.84;;;23.84;81.28
13709;BME280;54933;51.908;7.730;2023-08-06T03:26:34;99783.13;;;23.84;81.27
13709;BME280;54933;51.908;7.730;2023-08-06T03:29:00;99781.00;;;23.86;81.38
13709;BME280;54933;51.908;7.730;2023-08-06T03:31:25;99772.84;;;23.86;81.33
13709;BME280;54933;51.908;7.730;2023-08-06T03:33:50;99776.34;;;23.87;81.37
13709;BME280;54933;51.908;7.730;2023-08-06T03:36:15;99777.19;;;23.87;81.16
13709;BME280;54933;51.908;7.730;2023-08-06T03:38:41;99771.75;;;23.87;81.29
13709;BME280;54933;51.908;7.730;2023-08-06T03:41:06;99782.63;;;23.87;81.21
13709;BME280;54933;51.908;7.730;2023-08-06T03:43:31;99778.84;;;23.88;81.22
13709;BME280;54933;51.908;7.730;2023-08-06T03:45:56;99784.25;;;23.88;81.13
13709;BME280;54933;51.908;7.730;2023-08-06T03:48:22;99778.84;;;23.88;81.31
13709;BME280;54933;51.908;7.730;2023-08-06T03:50:47;99769.63;;;23.89;81.23
13709;BME280;54933;51.908;7.730;2023-08-06T03:53:12;99773.41;;;23.88;81.11
13709;BME280;54933;51.908;7.730;2023-08-06T03:55:37;99770.44;;;23.90;80.70
13709;BME280;54933;51.908;7.730;2023-08-06T03:58:03;99768.53;;;23.90;81.13
13709;BME280;54933;51.908;7.730;2023-08-06T04:00:28;99768.53;;;23.90;81.11
13709;BME280;54933;51.908;7.730;2023-08-06T04:02:53;99773.94;;;23.90;81.23
13709;BME280;54933;51.908;7.730;2023-08-06T04:05:19;99765.81;;;23.90;81.28
13709;BME280;54933;51.908;7.730;2023-08-06T04:07:44;99767.47;;;23.91;81.07
13709;BME280;54933;51.908;7.730;2023-08-06T04:10:09;99772.06;;;23.91;81.18
13709;BME280;54933;51.908;7.730;2023-08-06T04:12:34;99765.81;;;23.90;81.15
13709;BME280;54933;51.908;7.730;2023-08-06T04:15:02;99764.75;;;23.91;81.10
13709;BME280;54933;51.908;7.730;2023-08-06T04:17:28;99756.59;;;23.91;81.08
13709;BME280;54933;51.908;7.730;2023-08-06T04:19:54;99756.59;;;23.91;81.06
13709;BME280;54933;51.908;7.730;2023-08-06T04:22:21;99764.75;;;23.91;81.17
13709;BME280;54933;51.908;7.730;2023-08-06T04:24:47;99768.25;;;23.92;80.99
13709;BME280;54933;51.908;7.730;2023-08-06T04:27:14;99768.25;;;23.92;81.07
13709;BME280;54933;51.908;7.730;2023-08-06T04:29:39;99767.47;;;23.91;81.28
13709;BME280;54933;51.908;7.730;2023-08-06T04:32:07;99763.66;;;23.92;81.06
13709;BME280;54933;51.908;7.730;2023-08-06T04:34:33;99763.66;;;23.92;81.14
13709;BME280;54933;51.908;7.730;2023-08-06T04:36:59;99764.50;;;23.93;80.98
13709;BME280;54933;51.908;7.730;2023-08-06T04:39:25;99765.28;;;23.93;81.01
13709;BME280;54933;51.908;7.730;2023-08-06T04:41:50;99769.09;;;23.92;81.03
13709;BME280;54933;51.908;7.730;2023-08-06T04:44:15;99764.50;;;23.93;81.13
13709;BME280;54933;51.908;7.730;2023-08-06T04:46:41;99763.66;;;23.92;81.05
13709;BME280;54933;51.908;7.730;2023-08-06T04:49:06;99763.66;;;23.92;81.00
13709;BME280;54933;51.908;7.730;2023-08-06T04:51:31;99760.94;;;23.92;81.03
13709;BME280;54933;51.908;7.730;2023-08-06T04:53:57;99765.28;;;23.93;80.85
13709;BME280;54933;51.908;7.730;2023-08-06T04:56:22;99754.44;;;23.93;80.80
13709;BME280;54933;51.908;7.730;2023-08-06T04:58:47;99755.25;;;23.94;80.86
13709;BME280;54933;51.908;7.730;2023-08-06T05:01:13;99759.84;;;23.93;80.92
13709;BME280;54933;51.908;7.730;2023-08-06T05:03:38;99758.22;;;23.92;80.89
13709;BME280;54933;51.908;7.730;2023-08-06T05:06:03;99749.00;;;23.93;81.29
13709;BME280;54933;51.908;7.730;2023-08-06T05:08:29;99751.72;;;23.93;81.17
13709;BME280;54933;51.908;7.730;2023-08-06T05:10:54;99754.44;;;23.93;80.86
13709;BME280;54933;51.908;7.730;2023-08-06T05:13:19;99754.44;;;23.93;80.77
13709;BME280;54933;51.908;7.730;2023-08-06T05:15:45;99760.69;;;23.94;80.83
13709;BME280;54933;51.908;7.730;2023-08-06T05:18:11;99754.44;;;23.93;80.83
13709;BME280;54933;51.908;7.730;2023-08-06T05:20:37;99767.19;;;23.93;80.72
13709;BME280;54933;51.908;7.730;2023-08-06T05:23:03;99759.06;;;23.93;80.75
13709;BME280;54933;51.908;7.730;2023-08-06T05:25:28;99758.78;;;23.94;81.11
13709;BME280;54933;51.908;7.730;2023-08-06T05:27:53;99764.22;;;23.94;80.84
13709;BME280;54933;51.908;7.730;2023-08-06T05:30:19;99766.13;;;23.94;80.87
13709;BME280;54933;51.908;7.730;2023-08-06T05:32:44;99764.22;;;23.94;80.81
13709;BME280;54933;51.908;7.730;2023-08-06T05:35:09;99760.41;;;23.95;80.88
13709;BME280;54933;51.908;7.730;2023-08-06T05:37:34;99769.38;;;23.96;80.92
13709;BME280;54933;51.908;7.730;2023-08-06T05:40:00;99774.00;;;23.95;80.97
13709;BME280;54933;51.908;7.730;2023-08-06T05:42:26;99774.00;;;23.95;81.03
13709;BME280;54933;51.908;7.730;2023-08-06T05:44:52;99772.38;;;23.94;81.01
13709;BME280;54933;51.908;7.730;2023-08-06T05:47:17;99768.56;;;23.95;81.04
13709;BME280;54933;51.908;7.730;2023-08-06T05:49:42;99766.94;;;23.94;81.13
13709;BME280;54933;51.908;7.730;2023-08-06T05:52:07;99754.19;;;23.95;81.01
13709;BME280;54933;51.908;7.730;2023-08-06T05:54:33;99764.78;;;23.96;81.01
13709;BME280;54933;51.908;7.730;2023-08-06T05:56:58;99764.78;;;23.96;80.97
13709;BME280;54933;51.908;7.730;2023-08-06T05:59:23;99761.25;;;23.96;80.83
13709;BME280;54933;51.908;7.730;2023-08-06T06:01:49;99763.13;;;23.95;80.89
13709;BME280;54933;51.908;7.730;2023-08-06T06:04:14;99768.28;;;23.97;80.81
13709;BME280;54933;51.908;7.730;2023-08-06T06:06:39;99767.50;;;23.96;80.83
13709;BME280;54933;51.908;7.730;2023-08-06T06:09:06;99770.22;;;23.96;80.83
13709;BME280;54933;51.908;7.730;2023-08-06T06:11:32;99771.00;;;23.97;80.80
13709;BME280;54933;51.908;7.730;2023-08-06T06:13:57;99772.09;;;23.96;80.70
13709;BME280;54933;51.908;7.730;2023-08-06T06:16:22;99773.72;;;23.97;80.87
13709;BME280;54933;51.908;7.730;2023-08-06T06:18:48;99781.06;;;23.96;80.70
13709;BME280;54933;51.908;7.730;2023-08-06T06:21:13;99778.34;;;23.96;81.14
13709;BME280;54933;51.908;7.730;2023-08-06T06:23:38;99782.72;;;23.97;80.75
13709;BME280;54933;51.908;7.730;2023-08-06T06:26:04;99782.72;;;23.97;80.81
13709;BME280;54933;51.908;7.730;2023-08-06T06:28:29;99782.72;;;23.97;80.89
13709;BME280;54933;51.908;7.730;2023-08-06T06:31:00;99777.78;;;23.94;80.83
13709;BME280;54933;51.908;7.730;2023-08-06T06:33:25;99783.66;;;23.81;81.01
13709;BME280;54933;51.908;7.730;2023-08-06T06:35:50;99777.63;;;23.74;81.15
13709;BME280;54933;51.908;7.730;2023-08-06T06:38:15;99776.53;;;23.70;81.50
13709;BME280;54933;51.908;7.730;2023-08-06T06:40:41;99782.97;;;23.64;81.46
13709;BME280;54933;51.908;7.730;2023-08-06T06:43:06;99787.00;;;23.62;81.62
13709;BME280;54933;51.908;7.730;2023-08-06T06:45:31;99790.28;;;23.64;81.68
13709;BME280;54933;51.908;7.730;2023-08-06T06:47:57;99785.66;;;23.64;81.64
13709;BME280;54933;51.908;7.730;2023-08-06T06:50:22;99784.63;;;23.65;81.63
13709;BME280;54933;51.908;7.730;2023-08-06T06:52:47;99786.22;;;23.66;81.70
13709;BME280;54933;51.908;7.730;2023-08-06T06:55:12;99781.63;;;23.67;81.78
13709;BME280;54933;51.908;7.730;2023-08-06T06:57:38;99784.34;;;23.67;81.82
13709;BME280;54933;51.908;7.730;2023-08-06T07:00:03;99787.63;;;23.69;81.80
13709;BME280;54933;51.908;7.730;2023-08-06T07:02:29;99778.41;;;23.70;81.80
13709;BME280;54933;51.908;7.730;2023-08-06T07:04:54;99792.78;;;23.70;81.54
13709;BME280;54933;51.908;7.730;2023-08-06T07:07:19;99776.25;;;23.72;81.83
13709;BME280;54933;51.908;7.730;2023-08-06T07:09:44;99787.91;;;23.72;81.69
13709;BME280;54933;51.908;7.730;2023-08-06T07:12:10;99788.47;;;23.74;81.84
13709;BME280;54933;51.908;7.730;2023-08-06T07:14:35;99786.31;;;23.76;81.63
13709;BME280;54933;51.908;7.730;2023-08-06T07:17:00;99784.94;;;23.74;81.56
13709;BME280;54933;51.908;7.730;2023-08-06T07:19:26;99789.81;;;23.72;81.73
13709;BME280;54933;51.908;7.730;2023-08-06T07:21:51;99796.03;;;23.72;81.90
13709;BME280;54933;51.908;7.730;2023-08-06T07:24:16;99798.22;;;23.70;81.99
13709;BME280;54933;51.908;7.730;2023-08-06T07:26:41;99803.06;;;23.68;81.99
13709;BME280;54933;51.908;7.730;2023-08-06T07:29:07;99800.63;;;23.67;81.88
13709;BME280;54933;51.908;7.730;2023-08-06T07:31:32;99804.97;;;23.68;82.10
13709;BME280;54933;51.908;7.730;2023-08-06T07:33:57;99794.13;;;23.68;82.08
13709;BME280;54933;51.908;7.730;2023-08-06T07:36:23;99790.88;;;23.71;82.26
13709;BME280;54933;51.908;7.730;2023-08-06T07:38:48;99791.44;;;23.73;82.13
13709;BME280;54933;51.908;7.730;2023-08-06T07:41:16;99803.13;;;23.73;82.17
13709;BME280;54933;51.908;7.730;2023-08-06T07:43:42;99802.03;;;23.74;82.12
13709;BME280;54933;51.908;7.730;2023-08-06T07:46:07;99805.56;;;23.75;82.21
13709;BME280;54933;51.908;7.730;2023-08-06T07:48:33;99800.97;;;23.75;82.15
13709;BME280;54933;51.908;7.730;2023-08-06T07:50:58;99804.50;;;23.76;82.20
13709;BME280;54933;51.908;7.730;2023-08-06T07:53:25;99798.81;;;23.77;82.14
13709;BME280;54933;51.908;7.730;2023-08-06T07:55:53;99796.09;;;23.77;82.04
13709;BME280;54933;51.908;7.730;2023-08-06T07:58:20;99795.81;;;23.79;82.12
13709;BME280;54933;51.908;7.730;2023-08-06T08:00:46;99793.13;;;23.79;82.12
13709;BME280;54933;51.908;7.730;2023-08-06T08:03:12;99788.25;;;23.81;82.01
13709;BME280;54933;51.908;7.730;2023-08-06T08:05:39;99799.94;;;23.81;82.23
13709;BME280;54933;51.908;7.730;2023-08-06T08:08:04;99797.22;;;23.81;82.07
13709;BME280;54933;51.908;7.730;2023-08-06T08:10:31;99795.06;;;23.83;82.00
13709;BME280;54933;51.908;7.730;2023-08-06T08:12:56;99795.06;;;23.83;82.21
13709;BME280;54933;51.908;7.730;2023-08-06T08:15:21;99795.63;;;23.85;81.95
13709;BME280;54933;51.908;7.730;2023-08-06T08:17:46;99786.94;;;23.83;81.11
13709;BME280;54933;51.908;7.730;2023-08-06T08:20:13;99796.03;;;23.72;79.55
13709;BME280;54933;51.908;7.730;2023-08-06T08:22:38;99789.88;;;23.77;79.89
13709;BME280;54933;51.908;7.730;2023-08-06T08:25:04;99790.97;;;23.81;80.33
13709;BME280;54933;51.908;7.730;2023-08-06T08:27:29;99800.50;;;23.83;80.57
13709;BME280;54933;51.908;7.730;2023-08-06T08:29:55;99792.38;;;23.83;80.93
13709;BME280;54933;51.908;7.730;2023-08-06T08:32:21;99796.13;;;23.82;80.93
13709;BME280;54933;51.908;7.730;2023-08-06T08:34:46;99803.16;;;23.78;81.08
13709;BME280;54933;51.908;7.730;2023-08-06T08:37:12;99791.75;;;23.76;81.41
13709;BME280;54933;51.908;7.730;2023-08-06T08:39:38;99798.75;;;23.72;81.45
13709;BME280;54933;51.908;7.730;2023-08-06T08:42:03;99797.59;;;23.63;81.40
13709;BME280;54933;51.908;7.730;2023-08-06T08:44:29;99791.41;;;23.68;80.57
13709;BME280;54933;51.908;7.730;2023-08-06T08:46:57;99796.19;;;23.56;80.22
13709;BME280;54933;51.908;7.730;2023-08-06T08:49:23;99792.09;;;23.53;80.37
13709;BME280;54933;51.908;7.730;2023-08-06T08:51:50;99790.50;;;23.57;79.30
13709;BME280;54933;51.908;7.730;2023-08-06T08:54:18;99795.41;;;23.60;76.87
13709;BME280;54933;51.908;7.730;2023-08-06T08:56:44;99801.81;;;23.49;75.59
13709;BME280;54933;51.908;7.730;2023-08-06T08:59:10;99795.25;;;23.45;74.74
13709;BME280;54933;51.908;7.730;2023-08-06T09:01:37;99794.69;;;23.22;74.69
13709;BME280;54933;51.908;7.730;2023-08-06T09:04:04;99799.94;;;23.28;75.33
13709;BME280;54933;51.908;7.730;2023-08-06T09:06:33;99796.81;;;23.36;76.33
13709;BME280;54933;51.908;7.730;2023-08-06T09:09:06;99799.53;;;23.41;76.82
13709;BME280;54933;51.908;7.730;2023-08-06T09:11:42;99795.25;;;23.45;77.07
13709;BME280;54933;51.908;7.730;2023-08-06T09:14:07;99795.56;;;23.49;77.63
13709;BME280;54933;51.908;7.730;2023-08-06T09:16:37;99791.22;;;23.48;77.64
13709;BME280;54933;51.908;7.730;2023-08-06T09:19:13;99803.13;;;23.47;77.98
13709;BME280;54933;51.908;7.730;2023-08-06T09:21:41;99795.56;;;23.49;78.69
13709;BME280;54933;51.908;7.730;2023-08-06T09:24:10;99795.56;;;23.49;78.93
13709;BME280;54933;51.908;7.730;2023-08-06T09:26:37;99801.00;;;23.49;79.31
13709;BME280;54933;51.908;7.730;2023-08-06T09:29:05;99801.31;;;23.52;79.99
13709;BME280;54933;51.908;7.730;2023-08-06T09:31:41;99799.66;;;23.51;79.75
13709;BME280;54933;51.908;7.730;2023-08-06T09:34:20;99804.47;;;23.44;79.76
13709;BME280;54933;51.908;7.730;2023-08-06T09:36:50;99805.47;;;23.38;77.84
13709;BME280;54933;51.908;7.730;2023-08-06T09:39:21;99803.84;;;23.37;77.65
13709;BME280;54933;51.908;7.730;2023-08-06T09:41:47;99802.03;;;23.43;78.55
13709;BME280;54933;51.908;7.730;2023-08-06T09:46:41;99801.31;;;23.52;79.26
13709;BME280;54933;51.908;7.730;2023-08-06T09:49:06;99802.94;;;23.53;79.45
13709;BME280;54933;51.908;7.730;2023-08-06T09:51:34;99801.63;;;23.56;79.38
13709;BME280;54933;51.908;7.730;2023-08-06T09:54:00;99812.16;;;23.52;78.64
13709;BME280;54933;51.908;7.730;2023-08-06T09:56:26;99796.69;;;23.53;79.01
13709;BME280;54933;51.908;7.730;2023-08-06T09:58:52;99797.56;;;23.58;79.14
13709;BME280;54933;51.908;7.730;2023-08-06T10:01:18;99793.28;;;23.62;79.57
13709;BME280;54933;51.908;7.730;2023-08-06T10:03:44;99794.84;;;23.58;79.17
13709;BME280;54933;51.908;7.730;2023-08-06T10:06:10;99794.00;;;23.58;79.69
13709;BME280;54933;51.908;7.730;2023-08-06T10:08:37;99797.00;;;23.56;79.80
13709;BME280;54933;51.908;7.730;2023-08-06T10:11:03;99801.63;;;23.56;79.94
13709;BME280;54933;51.908;7.730;2023-08-06T10:13:31;99807.84;;;23.56;80.25
13709;BME280;54933;51.908;7.730;2023-08-06T10:15:57;99795.66;;;23.59;80.71
13709;BME280;54933;51.908;7.730;2023-08-06T10:18:23;99794.84;;;23.58;80.52
13709;BME280;54933;51.908;7.730;2023-08-06T10:20:48;99800.53;;;23.57;80.71
13709;BME280;54933;51.908;7.730;2023-08-06T10:23:14;99795.09;;;23.57;81.05
13709;BME280;54933;51.908;7.730;2023-08-06T10:25:41;99793.22;;;23.57;80.67
13709;BME280;54933;51.908;7.730;2023-08-06T10:28:10;99801.09;;;23.59;80.80
13709;BME280;54933;51.908;7.730;2023-08-06T10:30:44;99793.22;;;23.57;80.79
13709;BME280;54933;51.908;7.730;2023-08-06T10:33:09;99786.75;;;23.63;80.54
13709;BME280;54933;51.908;7.730;2023-08-06T10:35:40;99790.56;;;23.62;80.73
13709;BME280;54933;51.908;7.730;2023-08-06T10:40:37;99785.09;;;23.57;80.77
13709;BME280;54933;51.908;7.730;2023-08-06T10:43:04;99794.84;;;23.58;81.10
13709;BME280;54933;51.908;7.730;2023-08-06T10:45:34;99789.16;;;23.60;80.82
13709;BME280;54933;51.908;7.730;2023-08-06T10:47:59;99783.47;;;23.61;80.97
13709;BME280;54933;51.908;7.730;2023-08-06T10:50:25;99782.97;;;23.64;81.00
13709;BME280;54933;51.908;7.730;2023-08-06T10:52:50;99788.38;;;23.64;80.78
13709;BME280;54933;51.908;7.730;2023-08-06T10:55:23;99788.38;;;23.64;80.95
13709;BME280;54933;51.908;7.730;2023-08-06T10:57:49;99785.41;;;23.66;80.91
13709;BME280;54933;51.908;7.730;2023-08-06T11:00:14;99778.94;;;23.67;80.87
13709;BME280;54933;51.908;7.730;2023-08-06T11:02:40;99784.09;;;23.68;80.78
13709;BME280;54933;51.908;7.730;2023-08-06T11:05:06;99777.56;;;23.69;80.88
13709;BME280;54933;51.908;7.730;2023-08-06T11:07:32;99772.72;;;23.71;80.55
13709;BME280;54933;51.908;7.730;2023-08-06T11:10:05;99776.00;;;23.73;80.48
13709;BME280;54933;51.908;7.730;2023-08-06T11:12:32;99774.38;;;23.77;80.76
13709;BME280;54933;51.908;7.730;2023-08-06T11:14:58;99769.78;;;23.78;80.52
13709;BME280;54933;51.908;7.730;2023-08-06T11:17:23;99759.72;;;23.73;80.63
13709;BME280;54933;51.908;7.730;2023-08-06T11:19:49;99771.63;;;23.72;80.98
13709;BME280;54933;51.908;7.730;2023-08-06T11:22:16;99768.91;;;23.72;81.06
13709;BME280;54933;51.908;7.730;2023-08-06T11:24:42;99767.59;;;23.75;81.21
13709;BME280;54933;51.908;7.730;2023-08-06T11:27:11;99771.69;;;23.77;81.40
13709;BME280;54933;51.908;7.730;2023-08-06T11:29:38;99769.53;;;23.79;81.24
13709;BME280;54933;51.908;7.730;2023-08-06T11:32:04;99766.28;;;23.82;81.14
13709;BME280;54933;51.908;7.730;2023-08-06T11:34:30;99763.56;;;23.82;81.06
13709;BME280;54933;51.908;7.730;2023-08-06T11:36:56;99769.22;;;23.76;81.32
13709;BME280;54933;51.908;7.730;2023-08-06T11:39:22;99765.19;;;23.78;80.89
13709;BME280;54933;51.908;7.730;2023-08-06T11:41:47;99764.63;;;23.76;81.27
13709;BME280;54933;51.908;7.730;2023-08-06T11:44:13;99764.63;;;23.76;81.01
13709;BME280;54933;51.908;7.730;2023-08-06T11:46:55;99773.13;;;23.85;81.39
13709;BME280;54933;51.908;7.730;2023-08-06T11:52:10;99765.63;;;23.65;79.00
13709;BME280;54933;51.908;7.730;2023-08-06T11:54:37;99767.81;;;23.68;79.61
13709;BME280;54933;51.908;7.730;2023-08-06T11:57:03;99773.25;;;23.68;79.96
13709;BME280;54933;51.908;7.730;2023-08-06T11:59:28;99764.84;;;23.70;80.04
13709;BME280;54933;51.908;7.730;2023-08-06T12:01:53;99758.31;;;23.71;80.52
13709;BME280;54933;51.908;7.730;2023-08-06T12:04:19;99757.28;;;23.72;80.60
13709;BME280;54933;51.908;7.730;2023-08-06T12:06:44;99758.31;;;23.71;80.73
13709;BME280;54933;51.908;7.730;2023-08-06T12:09:09;99759.72;;;23.73;80.96
13709;BME280;54933;51.908;7.730;2023-08-06T12:11:35;99759.19;;;23.76;81.27
13709;BME280;54933;51.908;7.730;2023-08-06T12:14:01;99755.97;;;23.79;81.52
13709;BME280;54933;51.908;7.730;2023-08-06T12:16:28;99759.25;;;23.81;81.23
13709;BME280;54933;51.908;7.730;2023-08-06T12:18:53;99764.41;;;23.83;81.03
13709;BME280;54933;51.908;7.730;2023-08-06T12:21:18;99764.63;;;23.76;79.30
13709;BME280;54933;51.908;7.730;2023-08-06T12:23:43;99747.22;;;23.72;76.73
13709;BME280;54933;51.908;7.730;2023-08-06T12:26:09;99757.19;;;23.62;75.10
13709;BME280;54933;51.908;7.730;2023-08-06T12:28:35;99774.25;;;23.57;74.57
13709;BME280;54933;51.908;7.730;2023-08-06T12:31:00;99771.44;;;23.47;74.67
13709;BME280;54933;51.908;7.730;2023-08-06T12:33:26;99771.22;;;23.54;75.48
13709;BME280;54933;51.908;7.730;2023-08-06T12:35:51;99763.88;;;23.54;76.50
13709;BME280;54933;51.908;7.730;2023-08-06T12:38:19;99760.69;;;23.57;77.19
13709;BME280;54933;51.908;7.730;2023-08-06T12:40:44;99762.81;;;23.55;78.20
13709;BME280;54933;51.908;7.730;2023-08-06T12:43:10;99771.53;;;23.57;78.77
13709;BME280;54933;51.908;7.730;2023-08-06T12:45:35;99767.72;;;23.58;79.14
13709;BME280;54933;51.908;7.730;2023-08-06T12:48:00;99762.91;;;23.65;79.37
13709;BME280;54933;51.908;7.730;2023-08-06T12:50:26;99763.97;;;23.64;79.21
13709;BME280;54933;51.908;7.730;2023-08-06T12:52:51;99760.94;;;23.56;78.97
13709;BME280;54933;51.908;7.730;2023-08-06T12:55:16;99759.31;;;23.60;79.20
13709;BME280;54933;51.908;7.730;2023-08-06T12:57:41;99771.31;;;23.64;79.66
13709;BME280;54933;51.908;7.730;2023-08-06T13:00:07;99770.44;;;23.58;79.00
13709;BME280;54933;51.908;7.730;2023-08-06T13:02:32;99779.31;;;23.49;78.86
13709;BME280;54933;51.908;7.730;2023-08-06T13:04:58;99781.22;;;23.53;79.21